sensor_id;sensor_type;location;lat;lon;timestamp;P1;durP1;ratioP1;P2;durP2;ratioP2
84144;SDS011;74264;48.988;12.040;2024-03-06T00:02:22;15.45;;;10.07;;
84144;SDS011;74264;48.988;12.040;2024-03-06T00:04:47;15.73;;;9.32;;
84144;SDS011;74264;48.988;12.040;2024-03-06T00:07:13;13.32;;;8.88;;
84144;SDS011;74264;48.988;12.040;2024-03-06T00:09:39;16.40;;;9.50;;
84144;SDS011;74264;48.988;12.040;2024-03-06T00:12:04;13.13;;;8.20;;
84144;SDS011;74264;48.988;12.040;2024-03-06T00:14:31;17.15;;;9.65;;
84144;SDS011;74264;48.988;12.040;2024-03-06T00:16:57;14.60;;;9.55;;
84144;SDS011;74264;48.988;12.040;2024-03-06T00:19:22;16.23;;;10.27;;
84144;SDS011;74264;48.988;12.040;2024-03-06T00:21:48;14.88;;;9.63;;
84144;SDS011;74264;48.988;12.040;2024-03-06T00:24:14;13.07;;;9.80;;
84144;SDS011;74264;48.988;12.040;2024-03-06T00:26:41;16.40;;;9.55;;
84144;SDS011;74264;48.988;12.040;2024-03-06T00:29:08;14.68;;;9.38;;
84144;SDS011;74264;48.988;12.040;2024-03-06T00:31:34;17.55;;;9.93;;
84144;SDS011;74264;48.988;12.040;2024-03-06T00:34:00;16.48;;;9.63;;
84144;SDS011;74264;48.988;12.040;2024-03-06T00:36:26;15.32;;;9.93;;
84144;SDS011;74264;48.988;12.040;2024-03-06T00:38:51;16.95;;;10.32;;
84144;SDS011;74264;48.988;12.040;2024-03-06T00:41:17;16.65;;;10.02;;
84144;SDS011;74264;48.988;12.040;2024-03-06T00:43:43;18.90;;;10.23;;
84144;SDS011;74264;48.988;12.040;2024-03-06T00:46:08;15.90;;;9.18;;
84144;SDS011;74264;48.988;12.040;2024-03-06T00:48:34;17.02;;;10.35;;
84144;SDS011;74264;48.988;12.040;2024-03-06T00:50:59;15.52;;;9.90;;
84144;SDS011;74264;48.988;12.040;2024-03-06T00:53:25;17.27;;;9.90;;
84144;SDS011;74264;48.988;12.040;2024-03-06T00:55:50;17.17;;;10.07;;
84144;SDS011;74264;48.988;12.040;2024-03-06T00:58:16;16.42;;;9.77;;
84144;SDS011;74264;48.988;12.040;2024-03-06T01:00:42;16.65;;;10.88;;
84144;SDS011;74264;48.988;12.040;2024-03-06T01:03:07;15.13;;;9.00;;
84144;SDS011;74264;48.988;12.040;2024-03-06T01:05:33;14.88;;;8.60;;
84144;SDS011;74264;48.988;12.040;2024-03-06T01:07:58;20.15;;;10.40;;
84144;SDS011;74264;48.988;12.040;2024-03-06T01:10:24;16.38;;;9.40;;
84144;SDS011;74264;48.988;12.040;2024-03-06T01:12:50;17.10;;;10.35;;
84144;SDS011;74264;48.988;12.040;2024-03-06T01:15:16;21.50;;;11.65;;
84144;SDS011;74264;48.988;12.040;2024-03-06T01:17:42;17.20;;;11.18;;
84144;SDS011;74264;48.988;12.040;2024-03-06T01:20:07;17.52;;;10.98;;
84144;SDS011;74264;48.988;12.040;2024-03-06T01:22:34;18.15;;;10.55;;
84144;SDS011;74264;48.988;12.040;2024-03-06T01:24:59;16.33;;;10.18;;
84144;SDS011;74264;48.988;12.040;2024-03-06T01:27:26;18.58;;;10.05;;
84144;SDS011;74264;48.988;12.040;2024-03-06T01:29:54;16.85;;;10.88;;
84144;SDS011;74264;48.988;12.040;2024-03-06T01:32:20;19.02;;;10.60;;
84144;SDS011;74264;48.988;12.040;2024-03-06T01:34:46;20.85;;;11.43;;
84144;SDS011;74264;48.988;12.040;2024-03-06T01:37:11;17.92;;;10.85;;
84144;SDS011;74264;48.988;12.040;2024-03-06T01:39:37;18.67;;;10.88;;
84144;SDS011;74264;48.988;12.040;2024-03-06T01:42:02;20.90;;;11.90;;
84144;SDS011;74264;48.988;12.040;2024-03-06T01:44:28;22.35;;;11.52;;
84144;SDS011;74264;48.988;12.040;2024-03-06T01:46:54;17.70;;;10.63;;
84144;SDS011;74264;48.988;12.040;2024-03-06T01:49:20;21.48;;;12.10;;
84144;SDS011;74264;48.988;12.040;2024-03-06T01:51:48;22.92;;;11.60;;
84144;SDS011;74264;48.988;12.040;2024-03-06T01:54:17;23.83;;;11.32;;
84144;SDS011;74264;48.988;12.040;2024-03-06T01:56:45;22.02;;;11.60;;
84144;SDS011;74264;48.988;12.040;2024-03-06T01:59:15;16.50;;;10.93;;
84144;SDS011;74264;48.988;12.040;2024-03-06T02:01:44;21.60;;;11.25;;
84144;SDS011;74264;48.988;12.040;2024-03-06T02:04:11;14.45;;;10.02;;
84144;SDS011;74264;48.988;12.040;2024-03-06T02:06:41;20.25;;;11.05;;
84144;SDS011;74264;48.988;12.040;2024-03-06T02:09:07;18.80;;;10.90;;
84144;SDS011;74264;48.988;12.040;2024-03-06T02:11:34;19.65;;;10.90;;
84144;SDS011;74264;48.988;12.040;2024-03-06T02:14:01;22.45;;;11.48;;
84144;SDS011;74264;48.988;12.040;2024-03-06T02:16:26;19.90;;;11.85;;
84144;SDS011;74264;48.988;12.040;2024-03-06T02:18:55;19.35;;;11.45;;
84144;SDS011;74264;48.988;12.040;2024-03-06T02:21:25;20.63;;;11.85;;
84144;SDS011;74264;48.988;12.040;2024-03-06T02:23:51;21.05;;;11.95;;
84144;SDS011;74264;48.988;12.040;2024-03-06T02:26:17;21.15;;;11.65;;
84144;SDS011;74264;48.988;12.040;2024-03-06T02:28:47;17.92;;;11.68;;
84144;SDS011;74264;48.988;12.040;2024-03-06T02:31:15;22.00;;;11.80;;
84144;SDS011;74264;48.988;12.040;2024-03-06T02:33:41;22.98;;;11.32;;
84144;SDS011;74264;48.988;12.040;2024-03-06T02:36:07;18.20;;;11.52;;
84144;SDS011;74264;48.988;12.040;2024-03-06T02:38:33;24.60;;;14.95;;
84144;SDS011;74264;48.988;12.040;2024-03-06T02:40:59;25.48;;;14.98;;
84144;SDS011;74264;48.988;12.040;2024-03-06T02:43:25;25.60;;;15.00;;
84144;SDS011;74264;48.988;12.040;2024-03-06T02:45:51;25.33;;;15.07;;
84144;SDS011;74264;48.988;12.040;2024-03-06T02:48:16;23.20;;;14.15;;
84144;SDS011;74264;48.988;12.040;2024-03-06T02:50:42;22.08;;;12.88;;
84144;SDS011;74264;48.988;12.040;2024-03-06T02:53:07;20.92;;;12.85;;
84144;SDS011;74264;48.988;12.040;2024-03-06T02:55:33;23.55;;;13.07;;
84144;SDS011;74264;48.988;12.040;2024-03-06T02:58:01;17.58;;;11.98;;
84144;SDS011;74264;48.988;12.040;2024-03-06T03:00:29;24.98;;;12.90;;
84144;SDS011;74264;48.988;12.040;2024-03-06T03:02:56;19.35;;;12.23;;
84144;SDS011;74264;48.988;12.040;2024-03-06T03:05:22;25.83;;;13.27;;
84144;SDS011;74264;48.988;12.040;2024-03-06T03:07:47;21.40;;;12.40;;
84144;SDS011;74264;48.988;12.040;2024-03-06T03:10:13;21.33;;;13.30;;
84144;SDS011;74264;48.988;12.040;2024-03-06T03:12:39;25.60;;;12.77;;
84144;SDS011;74264;48.988;12.040;2024-03-06T03:15:05;26.23;;;12.38;;
84144;SDS011;74264;48.988;12.040;2024-03-06T03:17:32;21.63;;;12.43;;
84144;SDS011;74264;48.988;12.040;2024-03-06T03:19:59;23.27;;;13.40;;
84144;SDS011;74264;48.988;12.040;2024-03-06T03:22:25;25.85;;;13.30;;
84144;SDS011;74264;48.988;12.040;2024-03-06T03:24:50;23.20;;;12.43;;
84144;SDS011;74264;48.988;12.040;2024-03-06T03:27:16;27.25;;;13.18;;
84144;SDS011;74264;48.988;12.040;2024-03-06T03:29:41;24.08;;;13.35;;
84144;SDS011;74264;48.988;12.040;2024-03-06T03:32:07;26.52;;;13.25;;
84144;SDS011;74264;48.988;12.040;2024-03-06T03:34:34;24.65;;;13.88;;
84144;SDS011;74264;48.988;12.040;2024-03-06T03:37:01;23.60;;;13.57;;
84144;SDS011;74264;48.988;12.040;2024-03-06T03:39:26;26.80;;;14.07;;
84144;SDS011;74264;48.988;12.040;2024-03-06T03:41:52;26.15;;;14.18;;
84144;SDS011;74264;48.988;12.040;2024-03-06T03:44:18;27.63;;;14.13;;
84144;SDS011;74264;48.988;12.040;2024-03-06T03:46:45;32.22;;;15.65;;
84144;SDS011;74264;48.988;12.040;2024-03-06T03:49:11;35.13;;;14.15;;
84144;SDS011;74264;48.988;12.040;2024-03-06T03:51:37;31.35;;;15.05;;
84144;SDS011;74264;48.988;12.040;2024-03-06T03:54:04;29.40;;;14.65;;
84144;SDS011;74264;48.988;12.040;2024-03-06T03:56:30;28.85;;;15.32;;
84144;SDS011;74264;48.988;12.040;2024-03-06T03:58:57;31.08;;;14.60;;
84144;SDS011;74264;48.988;12.040;2024-03-06T04:01:23;33.05;;;14.20;;
84144;SDS011;74264;48.988;12.040;2024-03-06T04:03:50;31.70;;;15.77;;
84144;SDS011;74264;48.988;12.040;2024-03-06T04:06:16;30.27;;;15.98;;
84144;SDS011;74264;48.988;12.040;2024-03-06T04:08:42;34.15;;;16.40;;
84144;SDS011;74264;48.988;12.040;2024-03-06T04:11:08;36.17;;;16.67;;
84144;SDS011;74264;48.988;12.040;2024-03-06T04:13:37;31.73;;;16.52;;
84144;SDS011;74264;48.988;12.040;2024-03-06T04:16:03;33.65;;;16.52;;
84144;SDS011;74264;48.988;12.040;2024-03-06T04:18:29;30.00;;;16.98;;
84144;SDS011;74264;48.988;12.040;2024-03-06T04:21:01;36.05;;;17.60;;
84144;SDS011;74264;48.988;12.040;2024-03-06T04:23:29;31.35;;;16.15;;
84144;SDS011;74264;48.988;12.040;2024-03-06T04:25:55;31.30;;;17.15;;
84144;SDS011;74264;48.988;12.040;2024-03-06T04:28:21;33.40;;;16.90;;
84144;SDS011;74264;48.988;12.040;2024-03-06T04:30:46;36.60;;;17.58;;
84144;SDS011;74264;48.988;12.040;2024-03-06T04:33:12;34.40;;;16.80;;
84144;SDS011;74264;48.988;12.040;2024-03-06T04:35:40;33.08;;;17.83;;
84144;SDS011;74264;48.988;12.040;2024-03-06T04:38:07;33.78;;;17.85;;
84144;SDS011;74264;48.988;12.040;2024-03-06T04:40:33;34.58;;;16.73;;
84144;SDS011;74264;48.988;12.040;2024-03-06T04:42:59;36.28;;;17.80;;
84144;SDS011;74264;48.988;12.040;2024-03-06T04:45:28;34.25;;;16.70;;
84144;SDS011;74264;48.988;12.040;2024-03-06T04:47:54;31.95;;;17.30;;
84144;SDS011;74264;48.988;12.040;2024-03-06T04:50:20;38.33;;;18.52;;
84144;SDS011;74264;48.988;12.040;2024-03-06T04:52:46;37.03;;;17.48;;
84144;SDS011;74264;48.988;12.040;2024-03-06T04:55:12;39.50;;;18.27;;
84144;SDS011;74264;48.988;12.040;2024-03-06T04:57:39;40.88;;;18.15;;
84144;SDS011;74264;48.988;12.040;2024-03-06T05:00:07;38.40;;;18.10;;
84144;SDS011;74264;48.988;12.040;2024-03-06T05:02:34;39.15;;;18.92;;
84144;SDS011;74264;48.988;12.040;2024-03-06T05:05:01;38.08;;;17.90;;
84144;SDS011;74264;48.988;12.040;2024-03-06T05:07:28;41.15;;;19.55;;
84144;SDS011;74264;48.988;12.040;2024-03-06T05:09:54;42.13;;;18.85;;
84144;SDS011;74264;48.988;12.040;2024-03-06T05:12:20;44.00;;;21.88;;
84144;SDS011;74264;48.988;12.040;2024-03-06T05:14:46;38.38;;;19.38;;
84144;SDS011;74264;48.988;12.040;2024-03-06T05:17:11;37.22;;;18.08;;
84144;SDS011;74264;48.988;12.040;2024-03-06T05:19:37;40.20;;;18.73;;
84144;SDS011;74264;48.988;12.040;2024-03-06T05:22:03;38.58;;;18.88;;
84144;SDS011;74264;48.988;12.040;2024-03-06T05:24:29;39.30;;;17.50;;
84144;SDS011;74264;48.988;12.040;2024-03-06T05:26:55;39.80;;;19.27;;
84144;SDS011;74264;48.988;12.040;2024-03-06T05:29:20;42.30;;;19.15;;
84144;SDS011;74264;48.988;12.040;2024-03-06T05:31:46;39.78;;;18.40;;
84144;SDS011;74264;48.988;12.040;2024-03-06T05:34:12;34.08;;;17.50;;
84144;SDS011;74264;48.988;12.040;2024-03-06T05:36:37;45.42;;;21.80;;
84144;SDS011;74264;48.988;12.040;2024-03-06T05:39:03;45.95;;;21.83;;
84144;SDS011;74264;48.988;12.040;2024-03-06T05:41:32;44.83;;;19.27;;
84144;SDS011;74264;48.988;12.040;2024-03-06T05:44:00;45.00;;;21.23;;
84144;SDS011;74264;48.988;12.040;2024-03-06T05:46:26;45.05;;;21.55;;
84144;SDS011;74264;48.988;12.040;2024-03-06T05:48:51;39.33;;;19.85;;
84144;SDS011;74264;48.988;12.040;2024-03-06T05:51:17;44.05;;;21.50;;
84144;SDS011;74264;48.988;12.040;2024-03-06T05:53:43;45.42;;;20.70;;
84144;SDS011;74264;48.988;12.040;2024-03-06T05:56:09;44.50;;;20.17;;
84144;SDS011;74264;48.988;12.040;2024-03-06T05:58:35;46.78;;;20.98;;
84144;SDS011;74264;48.988;12.040;2024-03-06T06:01:01;52.70;;;24.02;;
84144;SDS011;74264;48.988;12.040;2024-03-06T06:03:31;48.92;;;22.38;;
84144;SDS011;74264;48.988;12.040;2024-03-06T06:05:57;47.72;;;22.80;;
84144;SDS011;74264;48.988;12.040;2024-03-06T06:08:24;46.67;;;23.27;;
84144;SDS011;74264;48.988;12.040;2024-03-06T06:10:50;46.85;;;22.08;;
84144;SDS011;74264;48.988;12.040;2024-03-06T06:13:17;52.35;;;22.92;;
84144;SDS011;74264;48.988;12.040;2024-03-06T06:15:44;43.15;;;22.05;;
84144;SDS011;74264;48.988;12.040;2024-03-06T06:18:09;54.30;;;25.58;;
84144;SDS011;74264;48.988;12.040;2024-03-06T06:20:35;48.33;;;22.83;;
84144;SDS011;74264;48.988;12.040;2024-03-06T06:23:01;49.63;;;23.80;;
84144;SDS011;74264;48.988;12.040;2024-03-06T06:25:27;55.40;;;27.30;;
84144;SDS011;74264;48.988;12.040;2024-03-06T06:27:52;53.30;;;25.48;;
84144;SDS011;74264;48.988;12.040;2024-03-06T06:30:18;48.40;;;24.23;;
84144;SDS011;74264;48.988;12.040;2024-03-06T06:32:44;46.50;;;23.63;;
84144;SDS011;74264;48.988;12.040;2024-03-06T06:35:10;48.75;;;24.23;;
84144;SDS011;74264;48.988;12.040;2024-03-06T06:37:38;52.08;;;23.35;;
84144;SDS011;74264;48.988;12.040;2024-03-06T06:40:05;49.80;;;25.88;;
84144;SDS011;74264;48.988;12.040;2024-03-06T06:42:32;49.97;;;25.45;;
84144;SDS011;74264;48.988;12.040;2024-03-06T06:44:59;51.60;;;23.90;;
84144;SDS011;74264;48.988;12.040;2024-03-06T06:47:26;47.85;;;23.75;;
84144;SDS011;74264;48.988;12.040;2024-03-06T06:49:52;59.00;;;27.73;;
84144;SDS011;74264;48.988;12.040;2024-03-06T06:52:17;53.33;;;24.67;;
84144;SDS011;74264;48.988;12.040;2024-03-06T06:54:43;53.80;;;26.48;;
84144;SDS011;74264;48.988;12.040;2024-03-06T06:57:08;54.92;;;25.95;;
84144;SDS011;74264;48.988;12.040;2024-03-06T06:59:34;47.03;;;23.42;;
84144;SDS011;74264;48.988;12.040;2024-03-06T07:02:00;53.10;;;24.60;;
84144;SDS011;74264;48.988;12.040;2024-03-06T07:04:26;50.15;;;23.90;;
84144;SDS011;74264;48.988;12.040;2024-03-06T07:06:51;52.38;;;25.23;;
84144;SDS011;74264;48.988;12.040;2024-03-06T07:09:17;52.78;;;26.60;;
84144;SDS011;74264;48.988;12.040;2024-03-06T07:11:44;50.88;;;25.67;;
84144;SDS011;74264;48.988;12.040;2024-03-06T07:14:11;47.83;;;23.73;;
84144;SDS011;74264;48.988;12.040;2024-03-06T07:16:41;52.08;;;27.25;;
84144;SDS011;74264;48.988;12.040;2024-03-06T07:19:08;45.63;;;23.25;;
84144;SDS011;74264;48.988;12.040;2024-03-06T07:21:33;53.22;;;24.13;;
84144;SDS011;74264;48.988;12.040;2024-03-06T07:23:59;50.17;;;23.75;;
84144;SDS011;74264;48.988;12.040;2024-03-06T07:26:25;43.78;;;22.65;;
84144;SDS011;74264;48.988;12.040;2024-03-06T07:28:51;42.15;;;23.15;;
84144;SDS011;74264;48.988;12.040;2024-03-06T07:31:18;44.83;;;22.52;;
84144;SDS011;74264;48.988;12.040;2024-03-06T07:33:44;40.90;;;20.88;;
84144;SDS011;74264;48.988;12.040;2024-03-06T07:36:09;42.97;;;22.23;;
84144;SDS011;74264;48.988;12.040;2024-03-06T07:38:35;38.92;;;20.05;;
84144;SDS011;74264;48.988;12.040;2024-03-06T07:41:01;44.22;;;21.88;;
84144;SDS011;74264;48.988;12.040;2024-03-06T07:43:27;36.35;;;19.90;;
84144;SDS011;74264;48.988;12.040;2024-03-06T07:45:52;39.70;;;21.75;;
84144;SDS011;74264;48.988;12.040;2024-03-06T07:48:18;38.72;;;20.60;;
84144;SDS011;74264;48.988;12.040;2024-03-06T07:50:44;33.10;;;19.63;;
84144;SDS011;74264;48.988;12.040;2024-03-06T07:53:10;35.15;;;20.23;;
84144;SDS011;74264;48.988;12.040;2024-03-06T07:55:36;37.55;;;20.90;;
84144;SDS011;74264;48.988;12.040;2024-03-06T07:58:04;34.72;;;20.38;;
84144;SDS011;74264;48.988;12.040;2024-03-06T08:00:29;39.85;;;23.00;;
84144;SDS011;74264;48.988;12.040;2024-03-06T08:02:56;33.72;;;19.67;;
84144;SDS011;74264;48.988;12.040;2024-03-06T08:05:22;37.45;;;20.67;;
84144;SDS011;74264;48.988;12.040;2024-03-06T08:07:48;37.08;;;20.17;;
84144;SDS011;74264;48.988;12.040;2024-03-06T08:10:14;34.58;;;18.27;;
84144;SDS011;74264;48.988;12.040;2024-03-06T08:12:40;36.58;;;18.42;;
84144;SDS011;74264;48.988;12.040;2024-03-06T08:15:10;30.98;;;18.10;;
84144;SDS011;74264;48.988;12.040;2024-03-06T08:17:41;39.65;;;18.35;;
84144;SDS011;74264;48.988;12.040;2024-03-06T08:20:08;35.75;;;18.98;;
84144;SDS011;74264;48.988;12.040;2024-03-06T08:22:36;38.28;;;20.60;;
84144;SDS011;74264;48.988;12.040;2024-03-06T08:25:07;37.85;;;18.77;;
84144;SDS011;74264;48.988;12.040;2024-03-06T08:27:34;34.85;;;19.90;;
84144;SDS011;74264;48.988;12.040;2024-03-06T08:30:01;33.22;;;19.10;;
84144;SDS011;74264;48.988;12.040;2024-03-06T08:32:33;34.83;;;22.25;;
84144;SDS011;74264;48.988;12.040;2024-03-06T08:35:03;35.92;;;19.45;;
84144;SDS011;74264;48.988;12.040;2024-03-06T08:37:37;35.08;;;19.80;;
84144;SDS011;74264;48.988;12.040;2024-03-06T08:40:04;31.38;;;17.20;;
84144;SDS011;74264;48.988;12.040;2024-03-06T08:42:31;32.03;;;18.08;;
84144;SDS011;74264;48.988;12.040;2024-03-06T08:44:57;29.23;;;18.35;;
84144;SDS011;74264;48.988;12.040;2024-03-06T08:47:23;33.10;;;17.58;;
84144;SDS011;74264;48.988;12.040;2024-03-06T08:49:49;27.60;;;17.60;;
84144;SDS011;74264;48.988;12.040;2024-03-06T08:52:15;35.20;;;18.95;;
84144;SDS011;74264;48.988;12.040;2024-03-06T08:54:41;33.38;;;18.13;;
84144;SDS011;74264;48.988;12.040;2024-03-06T08:57:10;33.47;;;20.10;;
84144;SDS011;74264;48.988;12.040;2024-03-06T08:59:36;35.20;;;21.23;;
84144;SDS011;74264;48.988;12.040;2024-03-06T09:02:14;33.33;;;20.42;;
84144;SDS011;74264;48.988;12.040;2024-03-06T09:04:41;32.35;;;19.10;;
84144;SDS011;74264;48.988;12.040;2024-03-06T09:07:07;28.58;;;16.73;;
84144;SDS011;74264;48.988;12.040;2024-03-06T09:09:33;33.53;;;18.58;;
84144;SDS011;74264;48.988;12.040;2024-03-06T09:12:00;36.20;;;18.98;;
84144;SDS011;74264;48.988;12.040;2024-03-06T09:14:26;33.35;;;18.38;;
84144;SDS011;74264;48.988;12.040;2024-03-06T09:16:51;32.42;;;17.23;;
84144;SDS011;74264;48.988;12.040;2024-03-06T09:19:17;29.77;;;18.20;;
84144;SDS011;74264;48.988;12.040;2024-03-06T09:21:42;30.77;;;17.17;;
84144;SDS011;74264;48.988;12.040;2024-03-06T09:24:08;32.30;;;17.90;;
84144;SDS011;74264;48.988;12.040;2024-03-06T09:26:34;31.13;;;18.17;;
84144;SDS011;74264;48.988;12.040;2024-03-06T09:29:00;28.25;;;16.08;;
84144;SDS011;74264;48.988;12.040;2024-03-06T09:31:26;31.58;;;19.70;;
84144;SDS011;74264;48.988;12.040;2024-03-06T09:33:53;35.40;;;18.83;;
84144;SDS011;74264;48.988;12.040;2024-03-06T09:36:18;29.55;;;17.77;;
84144;SDS011;74264;48.988;12.040;2024-03-06T09:38:47;30.52;;;17.50;;
84144;SDS011;74264;48.988;12.040;2024-03-06T09:41:12;27.08;;;17.60;;
84144;SDS011;74264;48.988;12.040;2024-03-06T09:43:38;30.10;;;17.30;;
84144;SDS011;74264;48.988;12.040;2024-03-06T09:46:06;31.23;;;17.73;;
84144;SDS011;74264;48.988;12.040;2024-03-06T09:48:32;26.80;;;16.38;;
84144;SDS011;74264;48.988;12.040;2024-03-06T09:51:02;49.75;;;17.38;;
84144;SDS011;74264;48.988;12.040;2024-03-06T09:53:28;25.00;;;16.48;;
84144;SDS011;74264;48.988;12.040;2024-03-06T09:55:54;24.67;;;15.10;;
84144;SDS011;74264;48.988;12.040;2024-03-06T09:58:23;29.55;;;15.68;;
84144;SDS011;74264;48.988;12.040;2024-03-06T10:00:49;24.95;;;16.00;;
84144;SDS011;74264;48.988;12.040;2024-03-06T10:03:16;25.27;;;15.75;;
84144;SDS011;74264;48.988;12.040;2024-03-06T10:05:42;25.38;;;14.70;;
84144;SDS011;74264;48.988;12.040;2024-03-06T10:08:08;27.02;;;16.05;;
84144;SDS011;74264;48.988;12.040;2024-03-06T10:10:35;23.35;;;14.98;;
84144;SDS011;74264;48.988;12.040;2024-03-06T10:13:02;23.63;;;15.40;;
84144;SDS011;74264;48.988;12.040;2024-03-06T10:15:27;21.48;;;13.60;;
84144;SDS011;74264;48.988;12.040;2024-03-06T10:18:10;23.55;;;13.70;;
84144;SDS011;74264;48.988;12.040;2024-03-06T10:20:45;22.65;;;14.30;;
84144;SDS011;74264;48.988;12.040;2024-03-06T10:23:11;22.70;;;14.00;;
84144;SDS011;74264;48.988;12.040;2024-03-06T10:25:37;24.50;;;15.23;;
84144;SDS011;74264;48.988;12.040;2024-03-06T10:28:04;23.35;;;13.55;;
84144;SDS011;74264;48.988;12.040;2024-03-06T10:30:37;20.95;;;14.18;;
84144;SDS011;74264;48.988;12.040;2024-03-06T10:33:07;22.35;;;14.23;;
84144;SDS011;74264;48.988;12.040;2024-03-06T10:35:34;23.35;;;14.27;;
84144;SDS011;74264;48.988;12.040;2024-03-06T10:38:01;17.88;;;11.95;;
84144;SDS011;74264;48.988;12.040;2024-03-06T10:40:30;20.52;;;13.32;;
84144;SDS011;74264;48.988;12.040;2024-03-06T10:43:01;22.33;;;14.48;;
84144;SDS011;74264;48.988;12.040;2024-03-06T10:45:39;18.85;;;12.23;;
84144;SDS011;74264;48.988;12.040;2024-03-06T10:48:11;21.58;;;13.23;;
84144;SDS011;74264;48.988;12.040;2024-03-06T10:50:39;21.35;;;13.43;;
84144;SDS011;74264;48.988;12.040;2024-03-06T10:53:15;21.52;;;13.77;;
84144;SDS011;74264;48.988;12.040;2024-03-06T10:55:45;19.40;;;12.98;;
84144;SDS011;74264;48.988;12.040;2024-03-06T10:58:11;22.90;;;14.75;;
84144;SDS011;74264;48.988;12.040;2024-03-06T11:00:38;24.25;;;14.13;;
84144;SDS011;74264;48.988;12.040;2024-03-06T11:03:09;23.48;;;14.98;;
84144;SDS011;74264;48.988;12.040;2024-03-06T11:05:38;22.63;;;13.15;;
84144;SDS011;74264;48.988;12.040;2024-03-06T11:08:11;20.55;;;13.00;;
84144;SDS011;74264;48.988;12.040;2024-03-06T11:10:39;19.58;;;12.52;;
84144;SDS011;74264;48.988;12.040;2024-03-06T11:13:25;23.65;;;13.88;;
84144;SDS011;74264;48.988;12.040;2024-03-06T11:15:51;19.70;;;13.15;;
84144;SDS011;74264;48.988;12.040;2024-03-06T11:23:28;23.17;;;13.45;;
84144;SDS011;74264;48.988;12.040;2024-03-06T11:26:00;19.77;;;13.85;;
84144;SDS011;74264;48.988;12.040;2024-03-06T11:28:29;19.63;;;12.65;;
84144;SDS011;74264;48.988;12.040;2024-03-06T11:30:56;19.88;;;12.10;;
84144;SDS011;74264;48.988;12.040;2024-03-06T11:33:46;21.13;;;13.13;;
84144;SDS011;74264;48.988;12.040;2024-03-06T11:39:04;21.95;;;14.40;;
84144;SDS011;74264;48.988;12.040;2024-03-06T11:41:46;22.25;;;14.10;;
84144;SDS011;74264;48.988;12.040;2024-03-06T11:44:17;19.77;;;13.43;;
84144;SDS011;74264;48.988;12.040;2024-03-06T11:46:47;23.48;;;14.02;;
84144;SDS011;74264;48.988;12.040;2024-03-06T11:49:24;18.25;;;12.80;;
84144;SDS011;74264;48.988;12.040;2024-03-06T11:51:51;18.48;;;13.18;;
84144;SDS011;74264;48.988;12.040;2024-03-06T11:54:25;27.70;;;12.07;;
84144;SDS011;74264;48.988;12.040;2024-03-06T11:56:55;21.83;;;12.30;;
84144;SDS011;74264;48.988;12.040;2024-03-06T11:59:23;21.45;;;13.10;;
84144;SDS011;74264;48.988;12.040;2024-03-06T12:01:56;18.50;;;13.02;;
84144;SDS011;74264;48.988;12.040;2024-03-06T12:04:23;27.77;;;13.63;;
84144;SDS011;74264;48.988;12.040;2024-03-06T12:06:49;19.27;;;12.65;;
84144;SDS011;74264;48.988;12.040;2024-03-06T12:09:16;21.17;;;12.10;;
84144;SDS011;74264;48.988;12.040;2024-03-06T12:11:42;17.58;;;11.60;;
84144;SDS011;74264;48.988;12.040;2024-03-06T12:14:16;19.95;;;12.55;;
84144;SDS011;74264;48.988;12.040;2024-03-06T12:17:04;23.08;;;12.23;;
84144;SDS011;74264;48.988;12.040;2024-03-06T12:19:32;21.15;;;13.18;;
84144;SDS011;74264;48.988;12.040;2024-03-06T12:22:04;19.40;;;12.05;;
84144;SDS011;74264;48.988;12.040;2024-03-06T12:24:30;18.88;;;12.68;;
84144;SDS011;74264;48.988;12.040;2024-03-06T12:27:05;20.27;;;12.30;;
84144;SDS011;74264;48.988;12.040;2024-03-06T12:29:32;22.67;;;12.35;;
84144;SDS011;74264;48.988;12.040;2024-03-06T12:32:03;19.90;;;13.45;;
84144;SDS011;74264;48.988;12.040;2024-03-06T12:34:29;22.98;;;14.18;;
84144;SDS011;74264;48.988;12.040;2024-03-06T12:36:56;20.35;;;13.77;;
84144;SDS011;74264;48.988;12.040;2024-03-06T12:39:23;19.77;;;14.35;;
84144;SDS011;74264;48.988;12.040;2024-03-06T12:41:52;29.38;;;12.55;;
84144;SDS011;74264;48.988;12.040;2024-03-06T12:44:21;22.48;;;12.98;;
84144;SDS011;74264;48.988;12.040;2024-03-06T12:46:48;17.95;;;11.85;;
84144;SDS011;74264;48.988;12.040;2024-03-06T12:49:14;21.45;;;12.80;;
84144;SDS011;74264;48.988;12.040;2024-03-06T12:51:40;19.88;;;12.65;;
84144;SDS011;74264;48.988;12.040;2024-03-06T12:54:05;17.80;;;10.20;;
84144;SDS011;74264;48.988;12.040;2024-03-06T12:56:33;17.35;;;11.80;;
84144;SDS011;74264;48.988;12.040;2024-03-06T12:58:59;21.80;;;11.63;;
84144;SDS011;74264;48.988;12.040;2024-03-06T13:01:25;18.42;;;12.15;;
84144;SDS011;74264;48.988;12.040;2024-03-06T13:03:50;17.58;;;11.50;;
84144;SDS011;74264;48.988;12.040;2024-03-06T13:06:16;18.42;;;12.77;;
84144;SDS011;74264;48.988;12.040;2024-03-06T13:08:41;23.48;;;13.40;;
84144;SDS011;74264;48.988;12.040;2024-03-06T13:11:07;20.98;;;12.88;;
84144;SDS011;74264;48.988;12.040;2024-03-06T13:13:34;17.92;;;12.20;;
84144;SDS011;74264;48.988;12.040;2024-03-06T13:16:00;22.65;;;11.90;;
84144;SDS011;74264;48.988;12.040;2024-03-06T13:18:26;16.92;;;12.20;;
84144;SDS011;74264;48.988;12.040;2024-03-06T13:20:52;21.35;;;12.43;;
84144;SDS011;74264;48.988;12.040;2024-03-06T13:23:18;18.23;;;12.15;;
84144;SDS011;74264;48.988;12.040;2024-03-06T13:25:44;16.33;;;11.80;;
84144;SDS011;74264;48.988;12.040;2024-03-06T13:28:11;17.85;;;11.52;;
84144;SDS011;74264;48.988;12.040;2024-03-06T13:30:37;20.63;;;13.10;;
84144;SDS011;74264;48.988;12.040;2024-03-06T13:33:04;20.42;;;11.70;;
84144;SDS011;74264;48.988;12.040;2024-03-06T13:35:30;21.98;;;11.70;;
84144;SDS011;74264;48.988;12.040;2024-03-06T13:37:56;17.33;;;11.05;;
84144;SDS011;74264;48.988;12.040;2024-03-06T13:40:21;23.27;;;12.43;;
84144;SDS011;74264;48.988;12.040;2024-03-06T13:42:47;20.80;;;11.65;;
84144;SDS011;74264;48.988;12.040;2024-03-06T13:45:13;21.45;;;11.95;;
84144;SDS011;74264;48.988;12.040;2024-03-06T13:47:43;24.40;;;12.75;;
84144;SDS011;74264;48.988;12.040;2024-03-06T13:50:13;22.00;;;14.80;;
84144;SDS011;74264;48.988;12.040;2024-03-06T13:52:40;22.90;;;14.13;;
84144;SDS011;74264;48.988;12.040;2024-03-06T13:55:06;32.22;;;16.20;;
84144;SDS011;74264;48.988;12.040;2024-03-06T13:57:33;23.15;;;15.20;;
84144;SDS011;74264;48.988;12.040;2024-03-06T14:02:37;22.13;;;14.07;;
84144;SDS011;74264;48.988;12.040;2024-03-06T14:05:02;21.00;;;14.40;;
84144;SDS011;74264;48.988;12.040;2024-03-06T14:07:28;26.55;;;15.07;;
84144;SDS011;74264;48.988;12.040;2024-03-06T14:09:54;27.85;;;14.48;;
84144;SDS011;74264;48.988;12.040;2024-03-06T14:12:22;24.60;;;14.95;;
84144;SDS011;74264;48.988;12.040;2024-03-06T14:14:48;24.00;;;14.07;;
84144;SDS011;74264;48.988;12.040;2024-03-06T14:17:13;22.42;;;13.73;;
84144;SDS011;74264;48.988;12.040;2024-03-06T14:19:39;25.42;;;14.57;;